Página principal
METAR-TAF:

METAR-TAF

Aeroportos :

Nairobi, Quénia

latitude: 01-19S, longitude: 036-49E, altura: 1683 m

Observação actual do tempo

O boletim foi feito há 1 hora e 15 minutos, às 23:00 UTC
Vento calmo
Temperatura 14°C
Humidade 82%
Pressão 1025 hPa
Visibilidade 10 km ou mais
Nuvens fragmentadasa uma altura de 2000 ft

METAR: HKNW 222300Z 00000KT 9999 BKN020 14/11 Q1025

Hora: 03:15 (00:15 UTC)

Previsão

O boletim foi feito há 7 horas e 15 minutos, às 17:00 UTC
Previsão válida de 22 às 18 UTC a 23 às 18 UTC
Vento 10 kt de es-nordeste
Visibilidade 10 km ou mais
Nuvens fragmentadasa uma altura de 2000 ft
Tornando-se
de 23 às 00 UTC a 23 às 03 UTC
Vento 2 kt com direcção variável
Nuvens dispersasa uma altura de 800 ft
Nuvens fragmentadasa uma altura de 1400 ft
Tornando-se
de 23 às 08 UTC a 23 às 11 UTC
Vento 10 kt de su-sudeste
Nuvens fragmentadasa uma altura de 2000 ft

TAF: HKNW 221700Z 2218/2318 07010KT 9999 BKN020 BECMG 2300/2303 VRB02KT SCT008 BKN014 BECMG 2308/2311 15010KT BKN020

Observações e previsões do tempo de mais de 4000 aeroportos (mensagens METAR e TAF).

As estações disponíveis são os pontos amarelos e vermelhos sobre o mapa.

Mova o rato sobre o mapa para ver o nome da estação.

Depois clique no ponto para visualizar as observações e previsões meteorológicas.

Para alterar o mapa : clique nos botões verdes com uma cruz preta para aumentar o zoom; no botão verde com uma pitada de zoom; ou nas setas verdes para mapas adjacentes.


METAR-TAF: